sensor_id;sensor_type;location;lat;lon;timestamp;pressure;altitude;pressure_sealevel;temperature;humidity
34073;BME280;20346;52.702;16.886;2023-03-03T00:01:06;101473.33;;;-0.38;75.73
34073;BME280;20346;52.702;16.886;2023-03-03T00:03:52;101472.15;;;-0.37;75.71
34073;BME280;20346;52.702;16.886;2023-03-03T00:06:38;101468.95;;;-0.37;75.67
34073;BME280;20346;52.702;16.886;2023-03-03T00:09:24;101470.69;;;-0.36;75.69
34073;BME280;20346;52.702;16.886;2023-03-03T00:12:23;101469.73;;;-0.35;75.59
34073;BME280;20346;52.702;16.886;2023-03-03T00:15:17;101467.48;;;-0.36;75.60
34073;BME280;20346;52.702;16.886;2023-03-03T00:18:05;101472.91;;;-0.36;75.63
34073;BME280;20346;52.702;16.886;2023-03-03T00:20:59;101471.55;;;-0.36;75.62
34073;BME280;20346;52.702;16.886;2023-03-03T00:23:48;101473.02;;;-0.38;75.63
34073;BME280;20346;52.702;16.886;2023-03-03T00:26:34;101470.04;;;-0.40;75.55
34073;BME280;20346;52.702;16.886;2023-03-03T00:32:37;101472.60;;;-0.43;75.71
34073;BME280;20346;52.702;16.886;2023-03-03T00:35:28;101478.84;;;-0.44;75.64
34073;BME280;20346;52.702;16.886;2023-03-03T00:38:18;101473.84;;;-0.46;75.61
34073;BME280;20346;52.702;16.886;2023-03-03T00:41:10;101476.16;;;-0.47;75.66
34073;BME280;20346;52.702;16.886;2023-03-03T00:44:01;101469.66;;;-0.48;75.73
34073;BME280;20346;52.702;16.886;2023-03-03T00:53:18;101452.41;;;-0.52;75.71
34073;BME280;20346;52.702;16.886;2023-03-03T00:56:05;101444.44;;;-0.57;75.68
34073;BME280;20346;52.702;16.886;2023-03-03T00:58:51;101450.95;;;-0.59;75.73
34073;BME280;20346;52.702;16.886;2023-03-03T01:01:38;101452.39;;;-0.61;75.77
34073;BME280;20346;52.702;16.886;2023-03-03T01:04:24;101451.35;;;-0.61;75.87
34073;BME280;20346;52.702;16.886;2023-03-03T01:07:11;101447.48;;;-0.61;75.92
34073;BME280;20346;52.702;16.886;2023-03-03T01:09:58;101445.47;;;-0.60;75.90
34073;BME280;20346;52.702;16.886;2023-03-03T01:12:44;101442.77;;;-0.60;75.86
34073;BME280;20346;52.702;16.886;2023-03-03T01:15:30;101440.45;;;-0.63;75.85
34073;BME280;20346;52.702;16.886;2023-03-03T01:18:17;101438.14;;;-0.66;75.87
34073;BME280;20346;52.702;16.886;2023-03-03T01:21:03;101429.20;;;-0.65;75.93
34073;BME280;20346;52.702;16.886;2023-03-03T01:23:50;101419.08;;;-0.64;75.94
34073;BME280;20346;52.702;16.886;2023-03-03T01:26:36;101418.00;;;-0.61;75.96
34073;BME280;20346;52.702;16.886;2023-03-03T01:29:22;101422.43;;;-0.61;75.87
34073;BME280;20346;52.702;16.886;2023-03-03T01:32:08;101422.33;;;-0.59;75.92
34073;BME280;20346;52.702;16.886;2023-03-03T01:34:54;101417.65;;;-0.58;75.95
34073;BME280;20346;52.702;16.886;2023-03-03T01:37:40;101412.74;;;-0.57;75.82
34073;BME280;20346;52.702;16.886;2023-03-03T01:40:27;101407.74;;;-0.59;75.90
34073;BME280;20346;52.702;16.886;2023-03-03T01:43:14;101407.01;;;-0.61;75.91
34073;BME280;20346;52.702;16.886;2023-03-03T01:49:10;101401.58;;;-0.66;75.96
34073;BME280;20346;52.702;16.886;2023-03-03T01:51:59;101411.99;;;-0.67;75.86
34073;BME280;20346;52.702;16.886;2023-03-03T01:54:48;101416.00;;;-0.73;75.78
34073;BME280;20346;52.702;16.886;2023-03-03T01:57:36;101410.95;;;-0.80;75.81
34073;BME280;20346;52.702;16.886;2023-03-03T02:00:24;101418.13;;;-0.82;75.81
34073;BME280;20346;52.702;16.886;2023-03-03T02:03:11;101423.77;;;-0.85;75.94
34073;BME280;20346;52.702;16.886;2023-03-03T02:05:58;101420.20;;;-0.85;76.01
34073;BME280;20346;52.702;16.886;2023-03-03T02:11:52;101422.84;;;-0.83;76.10
34073;BME280;20346;52.702;16.886;2023-03-03T02:14:40;101413.30;;;-0.84;75.98
34073;BME280;20346;52.702;16.886;2023-03-03T02:17:26;101425.41;;;-0.86;76.03
34073;BME280;20346;52.702;16.886;2023-03-03T02:20:32;101424.56;;;-0.86;76.04
34073;BME280;20346;52.702;16.886;2023-03-03T02:26:34;101423.41;;;-0.85;76.06
34073;BME280;20346;52.702;16.886;2023-03-03T02:29:21;101412.21;;;-0.86;76.05
34073;BME280;20346;52.702;16.886;2023-03-03T02:32:07;101416.66;;;-0.85;76.09
34073;BME280;20346;52.702;16.886;2023-03-03T02:34:53;101412.02;;;-0.86;76.05
34073;BME280;20346;52.702;16.886;2023-03-03T02:37:39;101407.55;;;-0.88;76.02
34073;BME280;20346;52.702;16.886;2023-03-03T02:40:27;101414.18;;;-0.91;76.01
34073;BME280;20346;52.702;16.886;2023-03-03T02:43:16;101424.47;;;-0.92;76.10
34073;BME280;20346;52.702;16.886;2023-03-03T02:46:04;101424.77;;;-0.93;76.07
34073;BME280;20346;52.702;16.886;2023-03-03T02:48:51;101427.80;;;-0.93;76.14
34073;BME280;20346;52.702;16.886;2023-03-03T02:51:37;101431.20;;;-0.92;76.13
34073;BME280;20346;52.702;16.886;2023-03-03T02:54:24;101435.88;;;-0.94;76.15
34073;BME280;20346;52.702;16.886;2023-03-03T02:57:11;101427.92;;;-0.94;76.20
34073;BME280;20346;52.702;16.886;2023-03-03T02:59:57;101414.79;;;-0.93;76.18
34073;BME280;20346;52.702;16.886;2023-03-03T03:02:44;101418.00;;;-0.93;76.21
34073;BME280;20346;52.702;16.886;2023-03-03T03:05:30;101410.72;;;-0.93;76.18
34073;BME280;20346;52.702;16.886;2023-03-03T03:08:16;101408.33;;;-0.94;76.19
34073;BME280;20346;52.702;16.886;2023-03-03T03:11:02;101396.55;;;-0.92;76.34
34073;BME280;20346;52.702;16.886;2023-03-03T03:13:50;101396.95;;;-0.91;76.27
34073;BME280;20346;52.702;16.886;2023-03-03T03:16:37;101406.27;;;-0.90;76.27
34073;BME280;20346;52.702;16.886;2023-03-03T03:19:24;101399.27;;;-0.91;76.30
34073;BME280;20346;52.702;16.886;2023-03-03T03:22:10;101397.35;;;-0.93;76.32
34073;BME280;20346;52.702;16.886;2023-03-03T03:24:56;101392.16;;;-0.92;76.39
34073;BME280;20346;52.702;16.886;2023-03-03T03:27:42;101393.25;;;-0.90;76.33
34073;BME280;20346;52.702;16.886;2023-03-03T03:30:29;101383.39;;;-0.91;76.32
34073;BME280;20346;52.702;16.886;2023-03-03T03:33:15;101387.31;;;-0.94;76.27
34073;BME280;20346;52.702;16.886;2023-03-03T03:36:01;101381.29;;;-0.96;76.24
34073;BME280;20346;52.702;16.886;2023-03-03T03:38:48;101387.94;;;-0.95;76.35
34073;BME280;20346;52.702;16.886;2023-03-03T03:41:34;101390.48;;;-0.95;76.30
34073;BME280;20346;52.702;16.886;2023-03-03T03:44:20;101390.86;;;-0.98;76.31
34073;BME280;20346;52.702;16.886;2023-03-03T03:47:08;101390.27;;;-1.00;76.36
34073;BME280;20346;52.702;16.886;2023-03-03T03:49:54;101388.58;;;-1.00;76.31
34073;BME280;20346;52.702;16.886;2023-03-03T03:52:41;101383.98;;;-1.01;76.29
34073;BME280;20346;52.702;16.886;2023-03-03T03:55:28;101381.23;;;-1.02;76.37
34073;BME280;20346;52.702;16.886;2023-03-03T03:58:15;101382.41;;;-1.02;76.31
34073;BME280;20346;52.702;16.886;2023-03-03T04:01:03;101380.41;;;-1.02;76.34
34073;BME280;20346;52.702;16.886;2023-03-03T04:03:50;101370.94;;;-1.01;76.42
34073;BME280;20346;52.702;16.886;2023-03-03T04:06:36;101363.73;;;-1.00;76.44
34073;BME280;20346;52.702;16.886;2023-03-03T04:09:22;101369.98;;;-1.00;76.36
34073;BME280;20346;52.702;16.886;2023-03-03T04:12:08;101373.12;;;-1.02;76.37
34073;BME280;20346;52.702;16.886;2023-03-03T04:14:54;101379.98;;;-1.04;76.34
34073;BME280;20346;52.702;16.886;2023-03-03T04:17:40;101378.95;;;-1.04;76.36
34073;BME280;20346;52.702;16.886;2023-03-03T04:20:27;101379.15;;;-1.04;76.42
34073;BME280;20346;52.702;16.886;2023-03-03T04:23:13;101376.20;;;-1.01;76.47
34073;BME280;20346;52.702;16.886;2023-03-03T04:25:59;101372.52;;;-1.00;76.42
34073;BME280;20346;52.702;16.886;2023-03-03T04:28:45;101373.30;;;-1.02;76.44
34073;BME280;20346;52.702;16.886;2023-03-03T04:31:32;101367.52;;;-1.02;76.44
34073;BME280;20346;52.702;16.886;2023-03-03T04:34:18;101367.09;;;-1.01;76.51
34073;BME280;20346;52.702;16.886;2023-03-03T04:37:04;101369.28;;;-1.00;76.55
34073;BME280;20346;52.702;16.886;2023-03-03T04:39:50;101369.03;;;-0.98;76.50
34073;BME280;20346;52.702;16.886;2023-03-03T04:42:37;101363.64;;;-0.98;76.56
34073;BME280;20346;52.702;16.886;2023-03-03T04:45:23;101368.58;;;-0.97;76.56
34073;BME280;20346;52.702;16.886;2023-03-03T04:48:09;101371.66;;;-0.96;76.49
34073;BME280;20346;52.702;16.886;2023-03-03T04:50:55;101376.42;;;-0.95;76.59
34073;BME280;20346;52.702;16.886;2023-03-03T04:53:41;101375.58;;;-0.95;76.56
34073;BME280;20346;52.702;16.886;2023-03-03T04:56:29;101357.14;;;-0.95;76.63
34073;BME280;20346;52.702;16.886;2023-03-03T04:59:16;101347.02;;;-0.95;76.59
34073;BME280;20346;52.702;16.886;2023-03-03T05:02:02;101343.36;;;-0.93;76.59
34073;BME280;20346;52.702;16.886;2023-03-03T05:04:50;101335.63;;;-0.92;76.65
34073;BME280;20346;52.702;16.886;2023-03-03T05:07:37;101335.71;;;-0.90;76.70
34073;BME280;20346;52.702;16.886;2023-03-03T05:10:23;101335.89;;;-0.90;76.58
34073;BME280;20346;52.702;16.886;2023-03-03T05:13:09;101337.02;;;-0.91;76.59
34073;BME280;20346;52.702;16.886;2023-03-03T05:15:55;101340.15;;;-0.93;76.45
34073;BME280;20346;52.702;16.886;2023-03-03T05:18:42;101351.37;;;-0.96;76.56
34073;BME280;20346;52.702;16.886;2023-03-03T05:21:28;101350.83;;;-0.96;76.64
34073;BME280;20346;52.702;16.886;2023-03-03T05:24:14;101359.31;;;-0.96;76.60
34073;BME280;20346;52.702;16.886;2023-03-03T05:27:00;101361.17;;;-0.96;76.62
34073;BME280;20346;52.702;16.886;2023-03-03T05:29:48;101368.02;;;-0.98;76.54
34073;BME280;20346;52.702;16.886;2023-03-03T05:32:34;101373.65;;;-1.01;76.52
34073;BME280;20346;52.702;16.886;2023-03-03T05:35:20;101381.40;;;-1.02;76.56
34073;BME280;20346;52.702;16.886;2023-03-03T05:38:06;101398.16;;;-1.02;76.68
34073;BME280;20346;52.702;16.886;2023-03-03T05:40:52;101399.45;;;-0.99;76.69
34073;BME280;20346;52.702;16.886;2023-03-03T05:43:39;101405.25;;;-0.98;76.59
34073;BME280;20346;52.702;16.886;2023-03-03T05:46:25;101402.66;;;-0.99;76.66
34073;BME280;20346;52.702;16.886;2023-03-03T05:49:12;101389.70;;;-0.97;76.65
34073;BME280;20346;52.702;16.886;2023-03-03T05:51:58;101376.24;;;-0.96;76.74
34073;BME280;20346;52.702;16.886;2023-03-03T05:54:44;101374.30;;;-0.94;76.68
34073;BME280;20346;52.702;16.886;2023-03-03T05:57:31;101370.51;;;-0.95;76.60
34073;BME280;20346;52.702;16.886;2023-03-03T06:00:17;101375.84;;;-0.97;76.50
34073;BME280;20346;52.702;16.886;2023-03-03T06:03:04;101387.70;;;-0.97;76.63
34073;BME280;20346;52.702;16.886;2023-03-03T06:05:50;101388.45;;;-0.95;76.66
34073;BME280;20346;52.702;16.886;2023-03-03T06:08:36;101395.61;;;-0.94;76.73
34073;BME280;20346;52.702;16.886;2023-03-03T06:11:22;101394.47;;;-0.93;76.69
34073;BME280;20346;52.702;16.886;2023-03-03T06:14:08;101396.73;;;-0.92;76.75
34073;BME280;20346;52.702;16.886;2023-03-03T06:16:54;101398.52;;;-0.89;76.70
34073;BME280;20346;52.702;16.886;2023-03-03T06:19:42;101398.25;;;-0.88;76.66
34073;BME280;20346;52.702;16.886;2023-03-03T06:22:28;101399.31;;;-0.87;76.62
34073;BME280;20346;52.702;16.886;2023-03-03T06:25:15;101401.77;;;-0.88;76.64
34073;BME280;20346;52.702;16.886;2023-03-03T06:28:01;101402.80;;;-0.88;76.63
34073;BME280;20346;52.702;16.886;2023-03-03T06:30:47;101402.64;;;-0.88;76.68
34073;BME280;20346;52.702;16.886;2023-03-03T06:33:33;101402.08;;;-0.85;76.77
34073;BME280;20346;52.702;16.886;2023-03-03T06:36:19;101405.45;;;-0.82;76.80
34073;BME280;20346;52.702;16.886;2023-03-03T06:39:05;101400.55;;;-0.81;76.60
34073;BME280;20346;52.702;16.886;2023-03-03T06:41:51;101400.70;;;-0.82;76.64
34073;BME280;20346;52.702;16.886;2023-03-03T06:44:37;101399.58;;;-0.81;76.74
34073;BME280;20346;52.702;16.886;2023-03-03T06:47:23;101401.59;;;-0.77;76.80
34073;BME280;20346;52.702;16.886;2023-03-03T06:50:09;101402.14;;;-0.72;76.85
34073;BME280;20346;52.702;16.886;2023-03-03T06:52:59;101401.81;;;-0.68;76.77
34073;BME280;20346;52.702;16.886;2023-03-03T06:55:46;101389.97;;;-0.68;76.79
34073;BME280;20346;52.702;16.886;2023-03-03T06:58:33;101389.02;;;-0.66;76.80
34073;BME280;20346;52.702;16.886;2023-03-03T07:01:20;101398.84;;;-0.66;76.89
34073;BME280;20346;52.702;16.886;2023-03-03T07:04:14;101406.40;;;-0.63;76.87
34073;BME280;20346;52.702;16.886;2023-03-03T07:07:20;101405.27;;;-0.62;76.92
34073;BME280;20346;52.702;16.886;2023-03-03T07:10:40;101405.48;;;-0.61;76.93
34073;BME280;20346;52.702;16.886;2023-03-03T07:13:23;101406.83;;;-0.61;76.87
34073;BME280;20346;52.702;16.886;2023-03-03T07:16:11;101407.54;;;-0.60;76.91
34073;BME280;20346;52.702;16.886;2023-03-03T07:18:58;101415.35;;;-0.60;76.93
34073;BME280;20346;52.702;16.886;2023-03-03T07:21:50;101422.22;;;-0.58;76.87
34073;BME280;20346;52.702;16.886;2023-03-03T07:24:37;101425.34;;;-0.56;76.97
34073;BME280;20346;52.702;16.886;2023-03-03T07:27:24;101434.89;;;-0.54;76.95
34073;BME280;20346;52.702;16.886;2023-03-03T07:32:57;101439.40;;;-0.47;77.00
34073;BME280;20346;52.702;16.886;2023-03-03T07:35:43;101440.30;;;-0.46;77.03
34073;BME280;20346;52.702;16.886;2023-03-03T07:41:19;101442.22;;;-0.45;76.99
34073;BME280;20346;52.702;16.886;2023-03-03T07:44:14;101443.05;;;-0.41;77.06
34073;BME280;20346;52.702;16.886;2023-03-03T07:50:25;101447.98;;;-0.37;77.02
34073;BME280;20346;52.702;16.886;2023-03-03T07:53:14;101448.58;;;-0.34;77.02
34073;BME280;20346;52.702;16.886;2023-03-03T07:59:19;101447.48;;;-0.28;77.08
34073;BME280;20346;52.702;16.886;2023-03-03T08:02:13;101445.30;;;-0.27;77.14
34073;BME280;20346;52.702;16.886;2023-03-03T08:10:56;101461.40;;;-0.19;77.13
34073;BME280;20346;52.702;16.886;2023-03-03T08:13:42;101461.27;;;-0.18;77.11
34073;BME280;20346;52.702;16.886;2023-03-03T08:16:34;101464.23;;;-0.16;77.19
34073;BME280;20346;52.702;16.886;2023-03-03T08:19:22;101458.08;;;-0.14;77.29
34073;BME280;20346;52.702;16.886;2023-03-03T08:22:11;101456.11;;;-0.12;77.17
34073;BME280;20346;52.702;16.886;2023-03-03T08:24:58;101447.78;;;-0.08;77.26
34073;BME280;20346;52.702;16.886;2023-03-03T08:27:44;101452.80;;;-0.06;77.22
34073;BME280;20346;52.702;16.886;2023-03-03T08:30:30;101445.61;;;-0.04;77.19
34073;BME280;20346;52.702;16.886;2023-03-03T08:33:17;101438.77;;;-0.01;77.20
34073;BME280;20346;52.702;16.886;2023-03-03T08:36:03;101437.14;;;0.02;77.20
34073;BME280;20346;52.702;16.886;2023-03-03T08:38:50;101436.11;;;0.02;77.24
34073;BME280;20346;52.702;16.886;2023-03-03T08:41:36;101424.55;;;0.05;77.33
34073;BME280;20346;52.702;16.886;2023-03-03T08:44:22;101417.04;;;0.08;77.36
34073;BME280;20346;52.702;16.886;2023-03-03T08:47:08;101422.98;;;0.12;77.36
34073;BME280;20346;52.702;16.886;2023-03-03T08:49:54;101423.33;;;0.17;77.42
34073;BME280;20346;52.702;16.886;2023-03-03T08:52:40;101427.88;;;0.20;77.45
34073;BME280;20346;52.702;16.886;2023-03-03T08:55:26;101435.83;;;0.24;77.39
34073;BME280;20346;52.702;16.886;2023-03-03T08:58:13;101441.73;;;0.28;77.40
34073;BME280;20346;52.702;16.886;2023-03-03T09:00:59;101444.25;;;0.31;77.42
34073;BME280;20346;52.702;16.886;2023-03-03T09:03:46;101442.33;;;0.34;77.38
34073;BME280;20346;52.702;16.886;2023-03-03T09:06:32;101446.60;;;0.36;77.34
34073;BME280;20346;52.702;16.886;2023-03-03T09:09:18;101444.27;;;0.36;77.32
34073;BME280;20346;52.702;16.886;2023-03-03T09:12:18;101444.08;;;0.36;77.26
34073;BME280;20346;52.702;16.886;2023-03-03T09:18:16;101438.55;;;0.38;77.30
34073;BME280;20346;52.702;16.886;2023-03-03T09:21:13;101433.61;;;0.41;77.41
34073;BME280;20346;52.702;16.886;2023-03-03T09:24:01;101433.16;;;0.47;77.48
34073;BME280;20346;52.702;16.886;2023-03-03T09:26:47;101431.38;;;0.49;77.41
34073;BME280;20346;52.702;16.886;2023-03-03T09:29:36;101434.57;;;0.54;77.52
34073;BME280;20346;52.702;16.886;2023-03-03T09:32:29;101435.97;;;0.60;77.50
34073;BME280;20346;52.702;16.886;2023-03-03T09:35:25;101438.37;;;0.65;77.50
34073;BME280;20346;52.702;16.886;2023-03-03T09:38:24;101444.13;;;0.69;77.47
34073;BME280;20346;52.702;16.886;2023-03-03T10:17:13;101433.36;;;1.05;77.47
34073;BME280;20346;52.702;16.886;2023-03-03T10:22:55;101430.75;;;1.08;77.43
34073;BME280;20346;52.702;16.886;2023-03-03T10:25:49;101431.45;;;1.13;77.47
34073;BME280;20346;52.702;16.886;2023-03-03T10:34:32;101432.21;;;1.20;77.41
34073;BME280;20346;52.702;16.886;2023-03-03T10:37:23;101427.30;;;1.21;77.31
34073;BME280;20346;52.702;16.886;2023-03-03T10:40:55;101430.42;;;1.22;77.46
34073;BME280;20346;52.702;16.886;2023-03-03T10:52:28;101425.08;;;1.25;77.36
34073;BME280;20346;52.702;16.886;2023-03-03T10:55:18;101422.57;;;1.26;77.42
34073;BME280;20346;52.702;16.886;2023-03-03T10:58:10;101419.70;;;1.27;77.48
34073;BME280;20346;52.702;16.886;2023-03-03T11:01:01;101411.83;;;1.30;77.48
34073;BME280;20346;52.702;16.886;2023-03-03T11:12:33;101390.83;;;1.37;77.42
34073;BME280;20346;52.702;16.886;2023-03-03T11:24:19;101394.65;;;1.44;77.51
34073;BME280;20346;52.702;16.886;2023-03-03T11:30:00;101385.56;;;1.46;77.45
34073;BME280;20346;52.702;16.886;2023-03-03T11:32:48;101382.90;;;1.49;77.41
34073;BME280;20346;52.702;16.886;2023-03-03T11:35:50;101376.44;;;1.53;77.45
34073;BME280;20346;52.702;16.886;2023-03-03T11:38:58;101372.95;;;1.56;77.48
34073;BME280;20346;52.702;16.886;2023-03-03T11:45:02;101383.27;;;1.54;77.38
34073;BME280;20346;52.702;16.886;2023-03-03T11:47:53;101377.85;;;1.55;77.45
34073;BME280;20346;52.702;16.886;2023-03-03T11:51:03;101380.43;;;1.56;77.43
34073;BME280;20346;52.702;16.886;2023-03-03T11:54:02;101376.43;;;1.59;77.48
34073;BME280;20346;52.702;16.886;2023-03-03T11:56:49;101374.02;;;1.58;77.38
34073;BME280;20346;52.702;16.886;2023-03-03T11:59:47;101374.65;;;1.57;77.33
34073;BME280;20346;52.702;16.886;2023-03-03T12:12:03;101367.68;;;1.62;77.39
34073;BME280;20346;52.702;16.886;2023-03-03T12:27:51;101357.39;;;1.64;77.43
34073;BME280;20346;52.702;16.886;2023-03-03T12:45:39;101355.91;;;1.87;77.41
34073;BME280;20346;52.702;16.886;2023-03-03T12:51:25;101350.91;;;1.90;77.45
34073;BME280;20346;52.702;16.886;2023-03-03T13:02:58;101343.50;;;2.04;77.51
34073;BME280;20346;52.702;16.886;2023-03-03T13:23:53;101335.65;;;2.09;77.25
34073;BME280;20346;52.702;16.886;2023-03-03T13:29:36;101335.23;;;2.12;77.37
34073;BME280;20346;52.702;16.886;2023-03-03T13:32:34;101328.30;;;2.13;77.33
34073;BME280;20346;52.702;16.886;2023-03-03T13:35:28;101330.19;;;2.14;77.27
34073;BME280;20346;52.702;16.886;2023-03-03T13:38:28;101327.46;;;2.14;77.26
34073;BME280;20346;52.702;16.886;2023-03-03T13:44:19;101324.22;;;2.14;77.33
34073;BME280;20346;52.702;16.886;2023-03-03T13:47:20;101319.81;;;2.14;77.27
34073;BME280;20346;52.702;16.886;2023-03-03T13:55:55;101307.51;;;2.05;77.18
34073;BME280;20346;52.702;16.886;2023-03-03T13:59:02;101304.29;;;2.06;77.22
34073;BME280;20346;52.702;16.886;2023-03-03T14:01:56;101305.34;;;2.08;77.27
34073;BME280;20346;52.702;16.886;2023-03-03T14:05:00;101303.22;;;2.11;77.25
34073;BME280;20346;52.702;16.886;2023-03-03T14:07:58;101300.19;;;2.12;77.20
34073;BME280;20346;52.702;16.886;2023-03-03T14:10:57;101298.18;;;2.13;77.24
34073;BME280;20346;52.702;16.886;2023-03-03T14:13:53;101298.06;;;2.15;77.27
34073;BME280;20346;52.702;16.886;2023-03-03T14:16:51;101300.81;;;2.16;77.18
34073;BME280;20346;52.702;16.886;2023-03-03T14:19:43;101300.52;;;2.17;77.22
34073;BME280;20346;52.702;16.886;2023-03-03T14:25:55;101296.08;;;2.17;77.17
34073;BME280;20346;52.702;16.886;2023-03-03T14:28:42;101292.65;;;2.16;77.14
34073;BME280;20346;52.702;16.886;2023-03-03T14:31:29;101290.47;;;2.17;77.18
34073;BME280;20346;52.702;16.886;2023-03-03T14:37:20;101277.60;;;2.19;77.18
34073;BME280;20346;52.702;16.886;2023-03-03T14:43:00;101281.62;;;2.17;77.18
34073;BME280;20346;52.702;16.886;2023-03-03T14:45:46;101280.73;;;2.15;77.16
34073;BME280;20346;52.702;16.886;2023-03-03T14:48:36;101277.65;;;2.15;77.12
34073;BME280;20346;52.702;16.886;2023-03-03T14:51:42;101270.83;;;2.14;77.17
34073;BME280;20346;52.702;16.886;2023-03-03T14:54:32;101267.37;;;2.12;77.12
34073;BME280;20346;52.702;16.886;2023-03-03T14:57:20;101263.55;;;2.09;77.12
34073;BME280;20346;52.702;16.886;2023-03-03T15:00:26;101257.90;;;2.08;77.11
34073;BME280;20346;52.702;16.886;2023-03-03T15:03:20;101256.14;;;2.05;77.14
34073;BME280;20346;52.702;16.886;2023-03-03T15:06:10;101260.37;;;2.04;77.12
34073;BME280;20346;52.702;16.886;2023-03-03T15:12:16;101261.90;;;2.04;77.19
34073;BME280;20346;52.702;16.886;2023-03-03T15:29:28;101253.66;;;1.96;77.15
34073;BME280;20346;52.702;16.886;2023-03-03T15:32:23;101246.98;;;1.93;77.12
34073;BME280;20346;52.702;16.886;2023-03-03T15:38:02;101235.68;;;1.91;77.16
34073;BME280;20346;52.702;16.886;2023-03-03T15:40:56;101238.06;;;1.91;77.21
34073;BME280;20346;52.702;16.886;2023-03-03T15:49:46;101235.29;;;1.90;77.06
34073;BME280;20346;52.702;16.886;2023-03-03T15:52:52;101228.74;;;1.87;77.10
34073;BME280;20346;52.702;16.886;2023-03-03T15:58:54;101228.05;;;1.80;77.12
34073;BME280;20346;52.702;16.886;2023-03-03T16:04:38;101223.61;;;1.80;77.13
34073;BME280;20346;52.702;16.886;2023-03-03T16:10:56;101220.73;;;1.80;77.12
34073;BME280;20346;52.702;16.886;2023-03-03T16:34:03;101215.36;;;1.82;77.11
34073;BME280;20346;52.702;16.886;2023-03-03T16:40:14;101223.32;;;1.81;77.16
34073;BME280;20346;52.702;16.886;2023-03-03T16:43:09;101225.53;;;1.81;77.16
34073;BME280;20346;52.702;16.886;2023-03-03T16:46:02;101226.73;;;1.82;77.17
34073;BME280;20346;52.702;16.886;2023-03-03T16:54:56;101229.08;;;1.81;77.24
34073;BME280;20346;52.702;16.886;2023-03-03T17:00:36;101222.76;;;1.80;77.21
34073;BME280;20346;52.702;16.886;2023-03-03T17:03:39;101218.18;;;1.80;77.22
34073;BME280;20346;52.702;16.886;2023-03-03T17:06:30;101214.23;;;1.79;77.17
34073;BME280;20346;52.702;16.886;2023-03-03T17:17:46;101213.17;;;1.72;77.24
34073;BME280;20346;52.702;16.886;2023-03-03T17:29:18;101228.95;;;1.65;77.38
34073;BME280;20346;52.702;16.886;2023-03-03T17:38:14;101224.95;;;1.62;77.35
34073;BME280;20346;52.702;16.886;2023-03-03T17:41:12;101225.27;;;1.61;77.32
34073;BME280;20346;52.702;16.886;2023-03-03T17:47:03;101222.09;;;1.57;77.35
34073;BME280;20346;52.702;16.886;2023-03-03T17:56:07;101220.33;;;1.54;77.38
34073;BME280;20346;52.702;16.886;2023-03-03T18:07:44;101214.42;;;1.50;77.37
34073;BME280;20346;52.702;16.886;2023-03-03T18:16:45;101207.38;;;1.48;77.33
34073;BME280;20346;52.702;16.886;2023-03-03T18:22:41;101206.69;;;1.41;77.31
34073;BME280;20346;52.702;16.886;2023-03-03T18:28:52;101201.51;;;1.39;77.47
34073;BME280;20346;52.702;16.886;2023-03-03T18:41:25;101180.67;;;1.35;77.47
34073;BME280;20346;52.702;16.886;2023-03-03T18:44:28;101181.86;;;1.36;77.49
34073;BME280;20346;52.702;16.886;2023-03-03T18:47:14;101177.10;;;1.35;77.42
34073;BME280;20346;52.702;16.886;2023-03-03T18:50:05;101172.50;;;1.35;77.48
34073;BME280;20346;52.702;16.886;2023-03-03T18:53:58;101171.30;;;1.34;77.53
34073;BME280;20346;52.702;16.886;2023-03-03T18:56:09;101164.64;;;1.32;77.64
34073;BME280;20346;52.702;16.886;2023-03-03T18:58:56;101165.96;;;1.31;77.55
34073;BME280;20346;52.702;16.886;2023-03-03T19:01:43;101161.88;;;1.32;77.55
34073;BME280;20346;52.702;16.886;2023-03-03T19:04:31;101162.54;;;1.31;77.65
34073;BME280;20346;52.702;16.886;2023-03-03T19:07:21;101164.08;;;1.31;77.58
34073;BME280;20346;52.702;16.886;2023-03-03T19:13:42;101163.64;;;1.33;77.67
34073;BME280;20346;52.702;16.886;2023-03-03T19:16:30;101162.14;;;1.34;77.68
34073;BME280;20346;52.702;16.886;2023-03-03T19:19:30;101156.00;;;1.34;77.67
34073;BME280;20346;52.702;16.886;2023-03-03T19:22:26;101150.24;;;1.34;77.70
34073;BME280;20346;52.702;16.886;2023-03-03T19:25:14;101147.83;;;1.33;77.67
34073;BME280;20346;52.702;16.886;2023-03-03T19:31:22;101147.14;;;1.33;77.76
34073;BME280;20346;52.702;16.886;2023-03-03T19:34:15;101141.91;;;1.34;77.71
34073;BME280;20346;52.702;16.886;2023-03-03T19:37:13;101141.06;;;1.34;77.71
34073;BME280;20346;52.702;16.886;2023-03-03T19:46:38;101127.30;;;1.34;77.92
34073;BME280;20346;52.702;16.886;2023-03-03T19:53:17;101121.61;;;1.37;77.87
34073;BME280;20346;52.702;16.886;2023-03-03T19:55:48;101113.83;;;1.38;77.78
34073;BME280;20346;52.702;16.886;2023-03-03T20:11:07;101098.36;;;1.38;77.88
34073;BME280;20346;52.702;16.886;2023-03-03T20:14:02;101095.15;;;1.38;77.90
34073;BME280;20346;52.702;16.886;2023-03-03T20:16:53;101091.77;;;1.39;77.92
34073;BME280;20346;52.702;16.886;2023-03-03T20:19:57;101088.40;;;1.40;77.92
34073;BME280;20346;52.702;16.886;2023-03-03T20:23:04;101088.42;;;1.41;77.91
34073;BME280;20346;52.702;16.886;2023-03-03T20:32:10;101089.47;;;1.42;78.00
34073;BME280;20346;52.702;16.886;2023-03-03T20:44:30;101066.90;;;1.42;77.95
34073;BME280;20346;52.702;16.886;2023-03-03T20:53:56;101064.59;;;1.44;77.99
34073;BME280;20346;52.702;16.886;2023-03-03T20:56:47;101063.43;;;1.45;77.92
34073;BME280;20346;52.702;16.886;2023-03-03T20:59:38;101055.27;;;1.45;77.79
34073;BME280;20346;52.702;16.886;2023-03-03T21:02:38;101054.36;;;1.43;77.88
34073;BME280;20346;52.702;16.886;2023-03-03T21:05:26;101051.48;;;1.43;77.91
34073;BME280;20346;52.702;16.886;2023-03-03T21:08:14;101056.08;;;1.44;77.97
34073;BME280;20346;52.702;16.886;2023-03-03T21:11:00;101049.45;;;1.44;77.95